sensor_id;sensor_type;location;lat;lon;timestamp;temperature;humidity
67364;HTU21D;54250;45.572;38.086;2022-12-11T00:01:22;9.26;78.88
67364;HTU21D;54250;45.572;38.086;2022-12-11T00:03:49;9.27;78.87
67364;HTU21D;54250;45.572;38.086;2022-12-11T00:06:19;9.30;78.82
67364;HTU21D;54250;45.572;38.086;2022-12-11T00:08:45;9.31;78.85
67364;HTU21D;54250;45.572;38.086;2022-12-11T00:11:13;9.32;78.88
67364;HTU21D;54250;45.572;38.086;2022-12-11T00:13:40;9.30;78.95
67364;HTU21D;54250;45.572;38.086;2022-12-11T00:16:06;9.30;79.04
67364;HTU21D;54250;45.572;38.086;2022-12-11T00:18:33;9.30;79.03
67364;HTU21D;54250;45.572;38.086;2022-12-11T00:21:00;9.27;79.09
67364;HTU21D;54250;45.572;38.086;2022-12-11T00:23:26;9.29;79.10
67364;HTU21D;54250;45.572;38.086;2022-12-11T00:25:52;9.27;79.15
67364;HTU21D;54250;45.572;38.086;2022-12-11T00:28:19;9.29;79.16
67364;HTU21D;54250;45.572;38.086;2022-12-11T00:30:45;9.29;79.10
67364;HTU21D;54250;45.572;38.086;2022-12-11T00:33:12;9.29;79.19
67364;HTU21D;54250;45.572;38.086;2022-12-11T00:35:44;9.30;79.18
67364;HTU21D;54250;45.572;38.086;2022-12-11T00:38:15;9.29;79.27
67364;HTU21D;54250;45.572;38.086;2022-12-11T00:40:42;9.27;79.43
67364;HTU21D;54250;45.572;38.086;2022-12-11T00:43:08;9.26;79.33
67364;HTU21D;54250;45.572;38.086;2022-12-11T00:45:36;9.24;79.44
67364;HTU21D;54250;45.572;38.086;2022-12-11T00:48:02;9.25;79.50
67364;HTU21D;54250;45.572;38.086;2022-12-11T00:50:28;9.25;79.48
67364;HTU21D;54250;45.572;38.086;2022-12-11T00:52:54;9.27;79.43
67364;HTU21D;54250;45.572;38.086;2022-12-11T00:55:20;9.27;79.51
67364;HTU21D;54250;45.572;38.086;2022-12-11T00:57:46;9.32;79.44
67364;HTU21D;54250;45.572;38.086;2022-12-11T01:00:12;9.32;79.43
67364;HTU21D;54250;45.572;38.086;2022-12-11T01:02:38;9.35;79.37
67364;HTU21D;54250;45.572;38.086;2022-12-11T01:05:05;9.37;79.39
67364;HTU21D;54250;45.572;38.086;2022-12-11T01:07:31;9.36;79.46
67364;HTU21D;54250;45.572;38.086;2022-12-11T01:09:57;9.37;79.47
67364;HTU21D;54250;45.572;38.086;2022-12-11T01:12:41;9.30;79.55
67364;HTU21D;54250;45.572;38.086;2022-12-11T01:15:07;9.30;79.66
67364;HTU21D;54250;45.572;38.086;2022-12-11T01:17:33;9.30;79.66
67364;HTU21D;54250;45.572;38.086;2022-12-11T01:19:59;9.32;79.63
67364;HTU21D;54250;45.572;38.086;2022-12-11T01:22:25;9.32;79.66
67364;HTU21D;54250;45.572;38.086;2022-12-11T01:24:51;9.32;79.67
67364;HTU21D;54250;45.572;38.086;2022-12-11T01:27:17;9.30;79.69
67364;HTU21D;54250;45.572;38.086;2022-12-11T01:29:43;9.25;79.77
67364;HTU21D;54250;45.572;38.086;2022-12-11T01:32:09;9.22;79.82
67364;HTU21D;54250;45.572;38.086;2022-12-11T01:34:35;9.22;79.82
67364;HTU21D;54250;45.572;38.086;2022-12-11T01:37:01;9.25;79.75
67364;HTU21D;54250;45.572;38.086;2022-12-11T01:39:27;9.27;79.76
67364;HTU21D;54250;45.572;38.086;2022-12-11T01:41:57;9.33;79.60
67364;HTU21D;54250;45.572;38.086;2022-12-11T01:46:50;9.44;79.47
67364;HTU21D;54250;45.572;38.086;2022-12-11T01:49:18;9.48;79.43
67364;HTU21D;54250;45.572;38.086;2022-12-11T01:51:56;9.48;79.42
67364;HTU21D;54250;45.572;38.086;2022-12-11T01:54:25;9.47;79.46
67364;HTU21D;54250;45.572;38.086;2022-12-11T01:56:56;9.46;79.51
67364;HTU21D;54250;45.572;38.086;2022-12-11T01:59:26;9.44;79.58
67364;HTU21D;54250;45.572;38.086;2022-12-11T02:02:02;9.44;79.59
67364;HTU21D;54250;45.572;38.086;2022-12-11T02:04:30;9.41;79.67
67364;HTU21D;54250;45.572;38.086;2022-12-11T02:06:56;9.40;79.67
67364;HTU21D;54250;45.572;38.086;2022-12-11T02:09:31;9.39;79.62
67364;HTU21D;54250;45.572;38.086;2022-12-11T02:20:46;9.29;79.98
67364;HTU21D;54250;45.572;38.086;2022-12-11T02:23:32;9.24;80.01
67364;HTU21D;54250;45.572;38.086;2022-12-11T02:29:00;9.16;80.25
67364;HTU21D;54250;45.572;38.086;2022-12-11T02:31:52;9.12;80.27
67364;HTU21D;54250;45.572;38.086;2022-12-11T02:34:43;9.11;80.20
67364;HTU21D;54250;45.572;38.086;2022-12-11T02:37:15;9.09;80.27
67364;HTU21D;54250;45.572;38.086;2022-12-11T02:39:44;9.10;80.24
67364;HTU21D;54250;45.572;38.086;2022-12-11T02:42:12;9.15;80.13
67364;HTU21D;54250;45.572;38.086;2022-12-11T02:44:39;9.10;80.11
67364;HTU21D;54250;45.572;38.086;2022-12-11T02:47:09;9.08;80.12
67364;HTU21D;54250;45.572;38.086;2022-12-11T02:49:37;9.06;80.14
67364;HTU21D;54250;45.572;38.086;2022-12-11T02:52:05;9.04;80.17
67364;HTU21D;54250;45.572;38.086;2022-12-11T02:54:35;9.02;80.15
67364;HTU21D;54250;45.572;38.086;2022-12-11T02:57:07;8.98;80.14
67364;HTU21D;54250;45.572;38.086;2022-12-11T02:59:39;9.00;80.10
67364;HTU21D;54250;45.572;38.086;2022-12-11T03:02:06;9.01;80.07
67364;HTU21D;54250;45.572;38.086;2022-12-11T03:04:34;9.04;79.99
67364;HTU21D;54250;45.572;38.086;2022-12-11T03:07:12;9.06;79.90
67364;HTU21D;54250;45.572;38.086;2022-12-11T03:09:41;9.11;79.79
67364;HTU21D;54250;45.572;38.086;2022-12-11T03:12:09;9.16;79.72
67364;HTU21D;54250;45.572;38.086;2022-12-11T03:14:38;9.20;79.61
67364;HTU21D;54250;45.572;38.086;2022-12-11T03:17:15;9.22;79.52
67364;HTU21D;54250;45.572;38.086;2022-12-11T03:22:39;9.25;79.49
67364;HTU21D;54250;45.572;38.086;2022-12-11T03:25:16;9.26;79.46
67364;HTU21D;54250;45.572;38.086;2022-12-11T03:28:24;9.25;79.46
67364;HTU21D;54250;45.572;38.086;2022-12-11T03:30:48;9.25;79.50
67364;HTU21D;54250;45.572;38.086;2022-12-11T03:33:27;9.25;79.44
67364;HTU21D;54250;45.572;38.086;2022-12-11T03:36:02;9.23;79.47
67364;HTU21D;54250;45.572;38.086;2022-12-11T03:39:09;9.21;79.52
67364;HTU21D;54250;45.572;38.086;2022-12-11T03:41:38;9.17;79.60
67364;HTU21D;54250;45.572;38.086;2022-12-11T03:44:05;9.17;79.62
67364;HTU21D;54250;45.572;38.086;2022-12-11T03:46:35;9.16;79.65
67364;HTU21D;54250;45.572;38.086;2022-12-11T03:49:16;9.11;79.62
67364;HTU21D;54250;45.572;38.086;2022-12-11T03:51:45;9.09;79.73
67364;HTU21D;54250;45.572;38.086;2022-12-11T03:54:12;9.05;79.82
67364;HTU21D;54250;45.572;38.086;2022-12-11T03:56:39;9.00;79.88
67364;HTU21D;54250;45.572;38.086;2022-12-11T03:59:07;8.94;80.07
67364;HTU21D;54250;45.572;38.086;2022-12-11T04:01:34;8.88;80.25
67364;HTU21D;54250;45.572;38.086;2022-12-11T04:04:00;8.85;80.21
67364;HTU21D;54250;45.572;38.086;2022-12-11T04:06:26;8.81;80.37
67364;HTU21D;54250;45.572;38.086;2022-12-11T04:08:52;8.78;80.35
67364;HTU21D;54250;45.572;38.086;2022-12-11T04:11:18;8.76;80.35
67364;HTU21D;54250;45.572;38.086;2022-12-11T04:14:10;8.73;80.45
67364;HTU21D;54250;45.572;38.086;2022-12-11T04:16:57;8.68;80.52
67364;HTU21D;54250;45.572;38.086;2022-12-11T04:19:23;8.67;80.52
67364;HTU21D;54250;45.572;38.086;2022-12-11T04:22:10;8.63;80.56
67364;HTU21D;54250;45.572;38.086;2022-12-11T04:24:55;8.60;80.64
67364;HTU21D;54250;45.572;38.086;2022-12-11T04:27:21;8.60;80.65
67364;HTU21D;54250;45.572;38.086;2022-12-11T04:30:09;8.57;80.59
67364;HTU21D;54250;45.572;38.086;2022-12-11T04:32:36;8.57;80.64
67364;HTU21D;54250;45.572;38.086;2022-12-11T04:35:02;8.57;80.56
67364;HTU21D;54250;45.572;38.086;2022-12-11T04:37:29;8.60;80.51
67364;HTU21D;54250;45.572;38.086;2022-12-11T04:39:55;8.62;80.49
67364;HTU21D;54250;45.572;38.086;2022-12-11T04:42:21;8.63;80.39
67364;HTU21D;54250;45.572;38.086;2022-12-11T04:44:47;8.63;80.36
67364;HTU21D;54250;45.572;38.086;2022-12-11T04:47:13;8.63;80.40
67364;HTU21D;54250;45.572;38.086;2022-12-11T04:49:39;8.62;80.41
67364;HTU21D;54250;45.572;38.086;2022-12-11T04:52:05;8.62;80.43
67364;HTU21D;54250;45.572;38.086;2022-12-11T04:54:31;8.59;80.44
67364;HTU21D;54250;45.572;38.086;2022-12-11T04:56:57;8.57;80.49
67364;HTU21D;54250;45.572;38.086;2022-12-11T04:59:24;8.58;80.49
67364;HTU21D;54250;45.572;38.086;2022-12-11T05:01:49;8.59;80.46
67364;HTU21D;54250;45.572;38.086;2022-12-11T05:04:15;8.61;80.38
67364;HTU21D;54250;45.572;38.086;2022-12-11T05:06:41;8.62;80.37
67364;HTU21D;54250;45.572;38.086;2022-12-11T05:09:11;8.65;80.30
67364;HTU21D;54250;45.572;38.086;2022-12-11T05:11:38;8.66;80.30
67364;HTU21D;54250;45.572;38.086;2022-12-11T05:14:04;8.66;80.27
67364;HTU21D;54250;45.572;38.086;2022-12-11T05:16:30;8.67;80.21
67364;HTU21D;54250;45.572;38.086;2022-12-11T05:18:56;8.71;80.17
67364;HTU21D;54250;45.572;38.086;2022-12-11T05:21:22;8.72;80.13
67364;HTU21D;54250;45.572;38.086;2022-12-11T05:23:48;8.74;80.07
67364;HTU21D;54250;45.572;38.086;2022-12-11T05:26:17;8.77;80.01
67364;HTU21D;54250;45.572;38.086;2022-12-11T05:28:44;8.78;79.96
67364;HTU21D;54250;45.572;38.086;2022-12-11T05:31:21;8.81;79.88
67364;HTU21D;54250;45.572;38.086;2022-12-11T05:33:48;8.85;79.84
67364;HTU21D;54250;45.572;38.086;2022-12-11T05:36:18;8.88;79.78
67364;HTU21D;54250;45.572;38.086;2022-12-11T05:38:45;8.91;79.68
67364;HTU21D;54250;45.572;38.086;2022-12-11T05:41:13;8.92;79.62
67364;HTU21D;54250;45.572;38.086;2022-12-11T05:43:40;8.91;79.60
67364;HTU21D;54250;45.572;38.086;2022-12-11T05:46:08;8.88;79.62
67364;HTU21D;54250;45.572;38.086;2022-12-11T05:48:34;8.83;79.66
67364;HTU21D;54250;45.572;38.086;2022-12-11T05:51:02;8.78;79.72
67364;HTU21D;54250;45.572;38.086;2022-12-11T05:53:29;8.77;79.75
67364;HTU21D;54250;45.572;38.086;2022-12-11T05:56:02;8.82;79.58
67364;HTU21D;54250;45.572;38.086;2022-12-11T05:58:28;8.86;79.46
67364;HTU21D;54250;45.572;38.086;2022-12-11T06:00:55;8.86;79.33
67364;HTU21D;54250;45.572;38.086;2022-12-11T06:03:21;8.86;79.28
67364;HTU21D;54250;45.572;38.086;2022-12-11T06:05:47;8.85;79.25
67364;HTU21D;54250;45.572;38.086;2022-12-11T06:08:14;8.85;79.15
67364;HTU21D;54250;45.572;38.086;2022-12-11T06:10:48;8.86;79.04
67364;HTU21D;54250;45.572;38.086;2022-12-11T06:13:15;8.90;79.09
67364;HTU21D;54250;45.572;38.086;2022-12-11T06:15:42;9.12;78.55
67364;HTU21D;54250;45.572;38.086;2022-12-11T06:18:08;9.19;78.40
67364;HTU21D;54250;45.572;38.086;2022-12-11T06:20:35;9.31;78.34
67364;HTU21D;54250;45.572;38.086;2022-12-11T06:23:01;9.59;77.79
67364;HTU21D;54250;45.572;38.086;2022-12-11T06:25:28;10.19;76.68
67364;HTU21D;54250;45.572;38.086;2022-12-11T06:27:54;11.08;74.99
67364;HTU21D;54250;45.572;38.086;2022-12-11T06:30:20;12.13;73.08
67364;HTU21D;54250;45.572;38.086;2022-12-11T06:32:47;12.63;71.68
67364;HTU21D;54250;45.572;38.086;2022-12-11T06:35:13;12.88;71.74
67364;HTU21D;54250;45.572;38.086;2022-12-11T06:37:39;13.56;70.79
67364;HTU21D;54250;45.572;38.086;2022-12-11T06:40:07;14.11;69.48
67364;HTU21D;54250;45.572;38.086;2022-12-11T06:42:34;14.81;68.54
67364;HTU21D;54250;45.572;38.086;2022-12-11T06:45:00;15.30;67.34
67364;HTU21D;54250;45.572;38.086;2022-12-11T06:47:27;15.77;66.85
67364;HTU21D;54250;45.572;38.086;2022-12-11T06:49:55;16.36;66.13
67364;HTU21D;54250;45.572;38.086;2022-12-11T06:52:22;17.07;65.59
67364;HTU21D;54250;45.572;38.086;2022-12-11T06:54:48;17.52;64.69
67364;HTU21D;54250;45.572;38.086;2022-12-11T06:57:16;17.50;64.76
67364;HTU21D;54250;45.572;38.086;2022-12-11T06:59:42;17.88;64.47
67364;HTU21D;54250;45.572;38.086;2022-12-11T07:02:12;18.34;62.63
67364;HTU21D;54250;45.572;38.086;2022-12-11T07:04:39;18.30;62.61
67364;HTU21D;54250;45.572;38.086;2022-12-11T07:07:06;18.02;63.14
67364;HTU21D;54250;45.572;38.086;2022-12-11T07:09:33;18.15;62.89
67364;HTU21D;54250;45.572;38.086;2022-12-11T07:11:59;18.38;61.25
67364;HTU21D;54250;45.572;38.086;2022-12-11T07:14:25;18.66;60.83
67364;HTU21D;54250;45.572;38.086;2022-12-11T07:16:51;19.14;60.47
67364;HTU21D;54250;45.572;38.086;2022-12-11T07:19:17;19.67;60.17
67364;HTU21D;54250;45.572;38.086;2022-12-11T07:21:43;20.05;58.62
67364;HTU21D;54250;45.572;38.086;2022-12-11T07:24:09;19.97;57.05
67364;HTU21D;54250;45.572;38.086;2022-12-11T07:26:35;20.27;57.81
67364;HTU21D;54250;45.572;38.086;2022-12-11T07:29:01;20.34;56.07
67364;HTU21D;54250;45.572;38.086;2022-12-11T07:31:28;20.29;55.53
67364;HTU21D;54250;45.572;38.086;2022-12-11T07:33:59;20.46;55.67
67364;HTU21D;54250;45.572;38.086;2022-12-11T07:36:26;20.59;55.63
67364;HTU21D;54250;45.572;38.086;2022-12-11T07:38:53;20.92;55.19
67364;HTU21D;54250;45.572;38.086;2022-12-11T07:41:20;21.11;55.26
67364;HTU21D;54250;45.572;38.086;2022-12-11T07:43:52;21.23;54.77
67364;HTU21D;54250;45.572;38.086;2022-12-11T07:46:22;21.35;54.83
67364;HTU21D;54250;45.572;38.086;2022-12-11T07:48:49;21.78;54.75
67364;HTU21D;54250;45.572;38.086;2022-12-11T07:51:28;22.07;54.46
67364;HTU21D;54250;45.572;38.086;2022-12-11T07:54:00;22.32;53.93
67364;HTU21D;54250;45.572;38.086;2022-12-11T07:56:27;22.26;53.15
67364;HTU21D;54250;45.572;38.086;2022-12-11T07:58:53;22.18;53.11
67364;HTU21D;54250;45.572;38.086;2022-12-11T08:01:22;21.83;54.47
67364;HTU21D;54250;45.572;38.086;2022-12-11T08:03:50;22.16;55.01
67364;HTU21D;54250;45.572;38.086;2022-12-11T08:06:17;22.63;53.66
67364;HTU21D;54250;45.572;38.086;2022-12-11T08:08:45;22.98;51.57
67364;HTU21D;54250;45.572;38.086;2022-12-11T08:11:13;22.79;51.61
67364;HTU21D;54250;45.572;38.086;2022-12-11T08:13:39;22.31;52.78
67364;HTU21D;54250;45.572;38.086;2022-12-11T08:16:08;22.42;52.58
67364;HTU21D;54250;45.572;38.086;2022-12-11T08:18:35;22.97;51.51
67364;HTU21D;54250;45.572;38.086;2022-12-11T08:21:12;23.25;52.01
67364;HTU21D;54250;45.572;38.086;2022-12-11T08:23:40;23.69;50.99
67364;HTU21D;54250;45.572;38.086;2022-12-11T08:26:08;24.24;50.43
67364;HTU21D;54250;45.572;38.086;2022-12-11T08:28:35;24.45;50.06
67364;HTU21D;54250;45.572;38.086;2022-12-11T08:31:06;24.47;50.01
67364;HTU21D;54250;45.572;38.086;2022-12-11T08:33:33;24.36;49.31
67364;HTU21D;54250;45.572;38.086;2022-12-11T08:36:06;24.41;49.10
67364;HTU21D;54250;45.572;38.086;2022-12-11T08:38:34;24.31;50.16
67364;HTU21D;54250;45.572;38.086;2022-12-11T08:41:11;24.49;49.42
67364;HTU21D;54250;45.572;38.086;2022-12-11T08:43:38;24.59;49.22
67364;HTU21D;54250;45.572;38.086;2022-12-11T08:46:05;24.48;47.79
67364;HTU21D;54250;45.572;38.086;2022-12-11T08:48:33;24.48;47.25
67364;HTU21D;54250;45.572;38.086;2022-12-11T08:51:00;24.41;46.56
67364;HTU21D;54250;45.572;38.086;2022-12-11T08:53:28;24.69;46.81
67364;HTU21D;54250;45.572;38.086;2022-12-11T08:56:03;24.65;46.51
67364;HTU21D;54250;45.572;38.086;2022-12-11T08:58:30;24.87;46.65
67364;HTU21D;54250;45.572;38.086;2022-12-11T09:00:56;25.00;45.93
67364;HTU21D;54250;45.572;38.086;2022-12-11T09:03:22;25.18;45.43
67364;HTU21D;54250;45.572;38.086;2022-12-11T09:05:48;25.13;44.88
67364;HTU21D;54250;45.572;38.086;2022-12-11T09:08:15;25.40;45.59
67364;HTU21D;54250;45.572;38.086;2022-12-11T09:10:41;25.31;44.47
67364;HTU21D;54250;45.572;38.086;2022-12-11T09:13:07;25.21;44.61
67364;HTU21D;54250;45.572;38.086;2022-12-11T09:15:33;25.21;44.36
67364;HTU21D;54250;45.572;38.086;2022-12-11T09:17:59;25.62;44.08
67364;HTU21D;54250;45.572;38.086;2022-12-11T09:20:25;25.49;43.06
67364;HTU21D;54250;45.572;38.086;2022-12-11T09:22:51;25.50;43.19
67364;HTU21D;54250;45.572;38.086;2022-12-11T09:25:17;25.40;41.83
67364;HTU21D;54250;45.572;38.086;2022-12-11T09:27:43;25.39;41.60
67364;HTU21D;54250;45.572;38.086;2022-12-11T09:30:09;25.22;41.45
67364;HTU21D;54250;45.572;38.086;2022-12-11T09:32:35;25.05;40.94
67364;HTU21D;54250;45.572;38.086;2022-12-11T09:35:01;24.70;41.20
67364;HTU21D;54250;45.572;38.086;2022-12-11T09:37:27;24.54;41.60
67364;HTU21D;54250;45.572;38.086;2022-12-11T09:39:53;24.17;42.06
67364;HTU21D;54250;45.572;38.086;2022-12-11T09:42:30;24.09;41.39
67364;HTU21D;54250;45.572;38.086;2022-12-11T09:45:01;23.98;41.47
67364;HTU21D;54250;45.572;38.086;2022-12-11T09:47:44;24.09;41.07
67364;HTU21D;54250;45.572;38.086;2022-12-11T09:50:16;24.02;41.30
67364;HTU21D;54250;45.572;38.086;2022-12-11T09:55:42;23.37;41.32
67364;HTU21D;54250;45.572;38.086;2022-12-11T09:58:44;23.37;41.85
67364;HTU21D;54250;45.572;38.086;2022-12-11T10:02:00;23.74;41.26
67364;HTU21D;54250;45.572;38.086;2022-12-11T10:04:39;23.92;41.20
67364;HTU21D;54250;45.572;38.086;2022-12-11T10:07:15;24.15;40.87
67364;HTU21D;54250;45.572;38.086;2022-12-11T10:17:56;24.00;40.78
67364;HTU21D;54250;45.572;38.086;2022-12-11T10:20:31;23.73;41.26
67364;HTU21D;54250;45.572;38.086;2022-12-11T10:23:05;23.71;41.12
67364;HTU21D;54250;45.572;38.086;2022-12-11T10:25:40;23.52;41.46
67364;HTU21D;54250;45.572;38.086;2022-12-11T10:28:14;23.45;41.17
67364;HTU21D;54250;45.572;38.086;2022-12-11T10:30:50;23.22;41.65
67364;HTU21D;54250;45.572;38.086;2022-12-11T10:33:23;23.03;41.40
67364;HTU21D;54250;45.572;38.086;2022-12-11T10:35:56;22.91;41.61
67364;HTU21D;54250;45.572;38.086;2022-12-11T10:38:51;22.65;42.10
67364;HTU21D;54250;45.572;38.086;2022-12-11T10:41:20;22.52;41.93
67364;HTU21D;54250;45.572;38.086;2022-12-11T10:43:51;22.70;42.45
67364;HTU21D;54250;45.572;38.086;2022-12-11T10:46:24;22.83;41.39
67364;HTU21D;54250;45.572;38.086;2022-12-11T10:48:56;22.81;41.90
67364;HTU21D;54250;45.572;38.086;2022-12-11T10:51:32;22.69;42.74
67364;HTU21D;54250;45.572;38.086;2022-12-11T10:54:15;22.36;42.91
67364;HTU21D;54250;45.572;38.086;2022-12-11T10:56:45;21.98;43.32
67364;HTU21D;54250;45.572;38.086;2022-12-11T11:01:56;21.17;45.09
67364;HTU21D;54250;45.572;38.086;2022-12-11T11:04:35;20.90;45.73
67364;HTU21D;54250;45.572;38.086;2022-12-11T11:07:12;20.63;46.41
67364;HTU21D;54250;45.572;38.086;2022-12-11T11:09:39;20.41;46.97
67364;HTU21D;54250;45.572;38.086;2022-12-11T11:12:25;20.11;47.34
67364;HTU21D;54250;45.572;38.086;2022-12-11T11:15:08;19.68;48.05
67364;HTU21D;54250;45.572;38.086;2022-12-11T11:20:46;18.91;49.49
67364;HTU21D;54250;45.572;38.086;2022-12-11T11:23:14;18.61;50.04
67364;HTU21D;54250;45.572;38.086;2022-12-11T11:25:53;18.32;50.55
67364;HTU21D;54250;45.572;38.086;2022-12-11T11:28:28;18.00;51.08
67364;HTU21D;54250;45.572;38.086;2022-12-11T11:30:58;17.75;51.60
67364;HTU21D;54250;45.572;38.086;2022-12-11T11:33:26;17.50;52.10
67364;HTU21D;54250;45.572;38.086;2022-12-11T11:35:56;17.29;52.46
67364;HTU21D;54250;45.572;38.086;2022-12-11T11:38:30;17.08;52.80
67364;HTU21D;54250;45.572;38.086;2022-12-11T11:41:19;16.88;53.17
67364;HTU21D;54250;45.572;38.086;2022-12-11T11:43:49;16.72;53.49
67364;HTU21D;54250;45.572;38.086;2022-12-11T11:46:20;16.57;53.78
67364;HTU21D;54250;45.572;38.086;2022-12-11T11:51:42;16.29;54.33
67364;HTU21D;54250;45.572;38.086;2022-12-11T11:56:58;16.00;54.94
67364;HTU21D;54250;45.572;38.086;2022-12-11T11:59:33;15.88;55.21
67364;HTU21D;54250;45.572;38.086;2022-12-11T12:02:01;15.77;55.43
67364;HTU21D;54250;45.572;38.086;2022-12-11T12:04:32;15.69;55.67
67364;HTU21D;54250;45.572;38.086;2022-12-11T12:07:21;15.54;55.87
67364;HTU21D;54250;45.572;38.086;2022-12-11T12:21:36;14.93;57.32
67364;HTU21D;54250;45.572;38.086;2022-12-11T12:24:16;14.79;57.81
67364;HTU21D;54250;45.572;38.086;2022-12-11T12:32:38;14.56;58.32
67364;HTU21D;54250;45.572;38.086;2022-12-11T12:41:02;14.33;59.32
67364;HTU21D;54250;45.572;38.086;2022-12-11T12:49:00;14.21;59.58
67364;HTU21D;54250;45.572;38.086;2022-12-11T12:51:27;14.10;59.71
67364;HTU21D;54250;45.572;38.086;2022-12-11T12:53:57;14.07;60.03
67364;HTU21D;54250;45.572;38.086;2022-12-11T12:56:25;13.97;60.22
67364;HTU21D;54250;45.572;38.086;2022-12-11T12:58:52;13.90;60.36
67364;HTU21D;54250;45.572;38.086;2022-12-11T13:01:23;13.81;60.57
67364;HTU21D;54250;45.572;38.086;2022-12-11T13:04:02;13.70;60.74
67364;HTU21D;54250;45.572;38.086;2022-12-11T13:09:25;13.48;61.04
67364;HTU21D;54250;45.572;38.086;2022-12-11T13:11:56;13.36;61.37
67364;HTU21D;54250;45.572;38.086;2022-12-11T13:14:26;13.26;61.59
67364;HTU21D;54250;45.572;38.086;2022-12-11T13:19:32;13.11;61.86
67364;HTU21D;54250;45.572;38.086;2022-12-11T13:27:46;12.77;62.54
67364;HTU21D;54250;45.572;38.086;2022-12-11T13:32:42;12.50;62.71
67364;HTU21D;54250;45.572;38.086;2022-12-11T13:35:16;12.31;62.97
67364;HTU21D;54250;45.572;38.086;2022-12-11T13:37:44;12.17;63.05
67364;HTU21D;54250;45.572;38.086;2022-12-11T13:42:58;11.86;63.13
67364;HTU21D;54250;45.572;38.086;2022-12-11T13:45:34;11.72;63.51
67364;HTU21D;54250;45.572;38.086;2022-12-11T13:48:03;11.64;63.98
67364;HTU21D;54250;45.572;38.086;2022-12-11T13:50:32;11.69;63.96
67364;HTU21D;54250;45.572;38.086;2022-12-11T13:53:00;11.63;64.16
67364;HTU21D;54250;45.572;38.086;2022-12-11T13:55:32;11.60;64.37
67364;HTU21D;54250;45.572;38.086;2022-12-11T13:57:59;11.55;64.59
67364;HTU21D;54250;45.572;38.086;2022-12-11T14:00:28;11.49;64.78
67364;HTU21D;54250;45.572;38.086;2022-12-11T14:03:01;11.44;65.36
67364;HTU21D;54250;45.572;38.086;2022-12-11T14:05:29;11.39;65.52
67364;HTU21D;54250;45.572;38.086;2022-12-11T14:07:58;11.37;65.67
67364;HTU21D;54250;45.572;38.086;2022-12-11T14:10:29;11.29;65.42
67364;HTU21D;54250;45.572;38.086;2022-12-11T14:15:21;11.04;65.82
67364;HTU21D;54250;45.572;38.086;2022-12-11T14:17:48;10.95;65.78
67364;HTU21D;54250;45.572;38.086;2022-12-11T14:20:24;10.84;66.17
67364;HTU21D;54250;45.572;38.086;2022-12-11T14:22:50;10.80;66.57
67364;HTU21D;54250;45.572;38.086;2022-12-11T14:25:23;10.77;66.45
67364;HTU21D;54250;45.572;38.086;2022-12-11T14:27:52;10.71;66.64
67364;HTU21D;54250;45.572;38.086;2022-12-11T14:30:26;10.60;66.56
67364;HTU21D;54250;45.572;38.086;2022-12-11T14:33:01;10.53;67.09
67364;HTU21D;54250;45.572;38.086;2022-12-11T14:35:32;10.53;66.85
67364;HTU21D;54250;45.572;38.086;2022-12-11T14:38:02;10.46;66.94
67364;HTU21D;54250;45.572;38.086;2022-12-11T14:40:34;10.42;66.87
67364;HTU21D;54250;45.572;38.086;2022-12-11T14:43:41;10.39;67.08
67364;HTU21D;54250;45.572;38.086;2022-12-11T14:46:01;10.39;67.20
67364;HTU21D;54250;45.572;38.086;2022-12-11T14:48:44;10.39;67.40
67364;HTU21D;54250;45.572;38.086;2022-12-11T14:51:14;10.42;67.28
67364;HTU21D;54250;45.572;38.086;2022-12-11T14:53:45;10.40;67.36
67364;HTU21D;54250;45.572;38.086;2022-12-11T14:56:25;10.39;67.29
67364;HTU21D;54250;45.572;38.086;2022-12-11T14:59:04;10.36;67.24
67364;HTU21D;54250;45.572;38.086;2022-12-11T15:01:33;10.29;67.46
67364;HTU21D;54250;45.572;38.086;2022-12-11T15:04:14;10.28;67.40
67364;HTU21D;54250;45.572;38.086;2022-12-11T15:06:46;10.21;67.48
67364;HTU21D;54250;45.572;38.086;2022-12-11T15:09:24;10.15;67.39
67364;HTU21D;54250;45.572;38.086;2022-12-11T15:11:51;10.06;67.55
67364;HTU21D;54250;45.572;38.086;2022-12-11T15:14:19;10.00;67.65
67364;HTU21D;54250;45.572;38.086;2022-12-11T15:16:47;9.96;67.57
67364;HTU21D;54250;45.572;38.086;2022-12-11T15:19:30;9.86;67.62
67364;HTU21D;54250;45.572;38.086;2022-12-11T15:22:03;9.81;67.85
67364;HTU21D;54250;45.572;38.086;2022-12-11T15:24:37;9.77;67.94
67364;HTU21D;54250;45.572;38.086;2022-12-11T15:27:05;9.77;68.04
67364;HTU21D;54250;45.572;38.086;2022-12-11T15:29:36;9.74;68.02
67364;HTU21D;54250;45.572;38.086;2022-12-11T15:34:44;9.76;68.23
67364;HTU21D;54250;45.572;38.086;2022-12-11T15:39:51;9.69;68.10
67364;HTU21D;54250;45.572;38.086;2022-12-11T15:42:24;9.65;68.17
67364;HTU21D;54250;45.572;38.086;2022-12-11T15:44:52;9.68;68.28
67364;HTU21D;54250;45.572;38.086;2022-12-11T15:47:25;9.72;68.23
67364;HTU21D;54250;45.572;38.086;2022-12-11T15:49:57;9.72;68.21
67364;HTU21D;54250;45.572;38.086;2022-12-11T15:52:24;9.77;68.19
67364;HTU21D;54250;45.572;38.086;2022-12-11T15:54:51;9.77;68.13
67364;HTU21D;54250;45.572;38.086;2022-12-11T15:57:20;9.78;68.10
67364;HTU21D;54250;45.572;38.086;2022-12-11T15:59:49;9.75;68.13
67364;HTU21D;54250;45.572;38.086;2022-12-11T16:02:16;9.75;68.15
67364;HTU21D;54250;45.572;38.086;2022-12-11T16:04:42;9.72;68.05
67364;HTU21D;54250;45.572;38.086;2022-12-11T16:07:20;9.64;68.17
67364;HTU21D;54250;45.572;38.086;2022-12-11T16:09:48;9.66;68.17
67364;HTU21D;54250;45.572;38.086;2022-12-11T16:12:17;9.68;68.12
67364;HTU21D;54250;45.572;38.086;2022-12-11T16:14:44;9.67;68.08
67364;HTU21D;54250;45.572;38.086;2022-12-11T16:17:12;9.68;68.04
67364;HTU21D;54250;45.572;38.086;2022-12-11T16:19:40;9.68;68.03
67364;HTU21D;54250;45.572;38.086;2022-12-11T16:22:07;9.70;67.92
67364;HTU21D;54250;45.572;38.086;2022-12-11T16:24:35;9.68;67.93
67364;HTU21D;54250;45.572;38.086;2022-12-11T16:27:02;9.67;67.98
67364;HTU21D;54250;45.572;38.086;2022-12-11T16:29:33;9.68;67.90
67364;HTU21D;54250;45.572;38.086;2022-12-11T16:31:59;9.65;67.94
67364;HTU21D;54250;45.572;38.086;2022-12-11T16:34:27;9.63;67.94
67364;HTU21D;54250;45.572;38.086;2022-12-11T16:36:59;9.61;67.97
67364;HTU21D;54250;45.572;38.086;2022-12-11T16:39:27;9.56;67.97
67364;HTU21D;54250;45.572;38.086;2022-12-11T16:41:53;9.55;68.04
67364;HTU21D;54250;45.572;38.086;2022-12-11T16:44:21;9.55;67.99
67364;HTU21D;54250;45.572;38.086;2022-12-11T16:46:48;9.51;68.01
67364;HTU21D;54250;45.572;38.086;2022-12-11T16:49:15;9.49;68.07
67364;HTU21D;54250;45.572;38.086;2022-12-11T16:51:42;9.49;68.03
67364;HTU21D;54250;45.572;38.086;2022-12-11T16:54:09;9.49;68.01
67364;HTU21D;54250;45.572;38.086;2022-12-11T16:56:36;9.45;68.03
67364;HTU21D;54250;45.572;38.086;2022-12-11T16:59:03;9.42;68.10
67364;HTU21D;54250;45.572;38.086;2022-12-11T17:01:30;9.40;68.03